Ede, Netherlands
Current Conditions -  °F | °C
As of 7:25 PM on Wednesday 28 Jan 2015 (Local Time) from EHDL Reporting Station
Unknown Precip Unknown Precip  
Wind Chill: 29°   Ceiling: Unl
Heat Index: 37°   Visibility: 6mi
Dew Point: 34°   Wind: 13mph
Humidity: 87%   Direction: 240°WSW
Pressure: 29.38"   Gusts: NA
Location:  52.03°N, 5.66°E
Report Text: EHDL 281825Z AUTO 24011KT 9999 -UP FEW010 SCT054 03/01 Q0995 BLU
Loading
Personal Weather Stations






























Interactive Weather Map New forecast layout! Learn more

10-Day Weather Forecast

Advertisements
Track Severe Weather on mobile